Terminal Aerodrome Forecast
Issued by NWS

Home | Current Version | Previous Version | Graphics & Text | Print | Product List | Glossary On
Versions: 1 2 3 4 5 6 7 8 9 10 11 12 13 14 15 16 17 18
000
FTUS43 KMPX 190800 AAA
TAFRNH
TAF AMD
KRNH 190852Z 1909/2006 VRB03KT 5SM BR FEW005 SCT015
      TEMPO 1909/1912 1/2SM FG BKN002
     FM191200 28003KT 2SM BR OVC004
     FM191500 29006KT P6SM SCT020
     FM191800 31007KT P6SM VCSH SCT060 BKN100=

USA.gov is the U.S. government's official web portal to all federal, state and local government web resources and services.